Time;durP1;ratioP1;P1;durP2;ratioP2;P2;SDS_P1;SDS_P2;PMS_P1;PMS_P2;Temp;Humidity;BMP_temperature;BMP_pressure;BME280_temperature;BME280_humidity;BME280_pressure;Samples;Min_cycle;Max_cycle;Signal;HPM_P1;HPM_P2
2022/08/14 00:00:49;;;;;;;0.50;0.50;;;25.10;45.60;;;;;;5061992;28;20029;-66
2022/08/14 00:03:23;;;;;;;0.60;0.60;;;25.10;45.70;;;;;;5062246;28;20511;-63
2022/08/14 00:05:49;;;;;;;0.52;0.52;;;25.10;45.60;;;;;;5062824;28;20029;-68
2022/08/14 00:08:16;;;;;;;0.50;0.50;;;25.10;45.60;;;;;;5062445;28;20035;-66
2022/08/14 00:10:42;;;;;;;0.77;0.60;;;25.10;45.60;;;;;;5063100;28;20052;-67
2022/08/14 00:13:08;;;;;;;0.60;0.60;;;25.10;45.60;;;;;;5062371;28;20053;-66
2022/08/14 00:15:38;;;;;;;0.50;0.50;;;25.10;45.60;;;;;;5061495;28;20078;-67
2022/08/14 00:18:05;;;;;;;0.60;0.60;;;25.10;45.60;;;;;;5061633;28;20036;-66
2022/08/14 00:20:34;;;;;;;0.50;0.50;;;25.10;45.60;;;;;;5063341;28;20089;-66
2022/08/14 00:23:00;;;;;;;0.60;0.60;;;25.10;45.60;;;;;;5062239;28;20040;-67
2022/08/14 00:25:27;;;;;;;0.50;0.50;;;25.10;45.60;;;;;;5062765;28;20024;-66
2022/08/14 00:27:54;;;;;;;0.60;0.60;;;25.10;45.60;;;;;;5063629;28;20354;-67
2022/08/14 00:30:20;;;;;;;0.60;0.60;;;25.10;45.60;;;;;;5061243;28;20031;-68
2022/08/14 00:32:46;;;;;;;0.60;0.60;;;25.10;45.60;;;;;;5061871;28;20437;-67
2022/08/14 00:35:12;;;;;;;0.52;0.52;;;25.10;45.60;;;;;;5062909;28;20047;-66
2022/08/14 00:37:40;;;;;;;0.40;0.40;;;25.10;45.60;;;;;;5062125;28;20128;-66
2022/08/14 00:40:08;;;;;;;0.60;0.60;;;25.10;45.70;;;;;;5061821;28;20086;-66
2022/08/14 00:42:33;;;;;;;0.60;0.60;;;25.10;45.60;;;;;;5062054;28;20421;-67
2022/08/14 00:44:59;;;;;;;0.70;0.60;;;25.00;45.50;;;;;;5062290;28;20023;-68
2022/08/14 00:47:25;;;;;;;0.50;0.50;;;25.10;45.60;;;;;;5061586;28;20028;-67
2022/08/14 00:49:52;;;;;;;0.60;0.60;;;25.10;45.60;;;;;;5062071;28;20032;-66
2022/08/14 00:52:19;;;;;;;0.50;0.50;;;25.00;45.60;;;;;;5062256;28;20032;-68
2022/08/14 00:54:53;;;;;;;0.50;0.50;;;25.10;45.60;;;;;;5061388;28;20044;-66
2022/08/14 00:57:27;;;;;;;0.60;0.60;;;25.10;45.60;;;;;;5061226;28;20108;-67
2022/08/14 00:59:55;;;;;;;0.70;0.70;;;25.10;45.60;;;;;;5061612;28;20024;-67
2022/08/14 01:02:23;;;;;;;0.50;0.50;;;25.10;45.60;;;;;;5061433;28;20041;-66
2022/08/14 01:04:51;;;;;;;0.60;0.60;;;25.00;45.60;;;;;;5059654;28;20025;-67
2022/08/14 01:07:20;;;;;;;0.60;0.60;;;25.10;45.70;;;;;;5061970;28;20096;-67
2022/08/14 01:09:51;;;;;;;0.60;0.60;;;25.00;45.60;;;;;;5061343;28;20112;-67
2022/08/14 01:12:18;;;;;;;0.60;0.60;;;25.00;45.60;;;;;;5062751;28;20057;-67
2022/08/14 01:14:44;;;;;;;0.60;0.60;;;25.00;45.60;;;;;;5061235;28;20020;-66
2022/08/14 01:17:12;;;;;;;0.60;0.60;;;25.00;45.50;;;;;;5061407;28;20104;-67
2022/08/14 01:22:22;;;;;;;0.60;0.60;;;25.00;45.50;;;;;;5059749;28;20544;-67
2022/08/14 01:24:48;;;;;;;0.60;0.60;;;25.00;45.50;;;;;;5060556;28;20028;-68
2022/08/14 01:27:20;;;;;;;0.68;0.60;;;25.00;45.50;;;;;;5062170;28;20043;-67
2022/08/14 01:29:50;;;;;;;0.70;0.70;;;25.00;45.50;;;;;;5062247;28;20032;-68
2022/08/14 01:32:20;;;;;;;0.60;0.60;;;25.00;45.60;;;;;;5058845;28;21008;-69
2022/08/14 01:34:54;;;;;;;0.70;0.70;;;25.00;45.60;;;;;;5061047;28;20043;-67
2022/08/14 01:37:24;;;;;;;0.70;0.70;;;25.00;45.60;;;;;;5060091;28;20025;-66
2022/08/14 01:39:51;;;;;;;0.60;0.60;;;25.00;45.60;;;;;;5062040;28;20399;-67
2022/08/14 01:42:17;;;;;;;0.60;0.60;;;25.00;45.50;;;;;;5059674;28;20025;-67
2022/08/14 01:44:44;;;;;;;0.60;0.60;;;25.00;45.50;;;;;;5061505;28;20472;-66
2022/08/14 01:47:13;;;;;;;0.68;0.68;;;25.00;45.60;;;;;;5061417;28;20390;-68
2022/08/14 01:49:40;;;;;;;0.70;0.70;;;25.00;45.60;;;;;;5060257;28;20857;-64
2022/08/14 01:52:06;;;;;;;0.60;0.60;;;25.00;45.60;;;;;;5060585;28;20338;-66
2022/08/14 01:54:33;;;;;;;0.50;0.50;;;25.00;45.50;;;;;;5060549;28;20020;-66
2022/08/14 01:56:58;;;;;;;0.60;0.60;;;25.00;45.50;;;;;;5061222;28;20045;-67
2022/08/14 01:59:30;;;;;;;0.60;0.60;;;25.00;45.50;;;;;;5060168;28;20037;-67
2022/08/14 02:01:58;;;;;;;0.70;0.70;;;25.00;45.60;;;;;;5059074;28;20029;-68
2022/08/14 02:04:29;;;;;;;0.60;0.60;;;25.00;45.50;;;;;;5061464;28;20098;-68
2022/08/14 02:06:55;;;;;;;0.68;0.68;;;24.90;45.50;;;;;;5058855;28;20052;-67
2022/08/14 02:09:21;;;;;;;0.40;0.40;;;24.90;45.50;;;;;;5061519;28;20502;-66
2022/08/14 02:11:49;;;;;;;0.50;0.50;;;25.00;45.60;;;;;;5059828;28;20044;-67
2022/08/14 02:14:14;;;;;;;0.60;0.60;;;25.00;45.60;;;;;;5061134;28;20043;-67
2022/08/14 02:16:44;;;;;;;0.70;0.70;;;25.00;45.60;;;;;;5060952;28;20388;-67
2022/08/14 02:19:13;;;;;;;0.73;0.70;;;25.00;45.60;;;;;;5060544;28;20035;-67
2022/08/14 02:21:40;;;;;;;0.52;0.52;;;24.90;45.50;;;;;;5063325;28;20075;-66
2022/08/14 02:24:06;;;;;;;0.60;0.60;;;25.00;45.50;;;;;;5063739;28;20029;-66
2022/08/14 02:26:35;;;;;;;0.50;0.50;;;24.90;45.50;;;;;;5063521;28;20376;-67
2022/08/14 02:29:11;;;;;;;0.60;0.60;;;24.90;45.50;;;;;;5063907;28;20031;-67
2022/08/14 02:31:44;;;;;;;0.60;0.60;;;24.90;45.50;;;;;;5063648;28;20037;-66
2022/08/14 02:34:21;;;;;;;0.85;0.50;;;24.90;45.60;;;;;;5062066;28;20039;-67
2022/08/14 02:36:50;;;;;;;0.70;0.70;;;24.90;45.50;;;;;;5062599;28;20082;-67
2022/08/14 02:39:16;;;;;;;0.65;0.65;;;24.90;45.50;;;;;;5060066;28;20071;-67
2022/08/14 02:41:42;;;;;;;0.60;0.60;;;24.90;45.50;;;;;;5065026;28;20044;-65
2022/08/14 02:44:09;;;;;;;0.70;0.70;;;24.90;45.50;;;;;;5064682;28;20031;-68
2022/08/14 02:46:41;;;;;;;0.50;0.50;;;24.90;45.50;;;;;;5064186;28;20491;-65
2022/08/14 02:49:06;;;;;;;0.60;0.60;;;24.90;46.10;;;;;;5063244;28;20108;-67
2022/08/14 02:51:33;;;;;;;0.60;0.60;;;24.90;45.60;;;;;;5064661;28;20158;-67
2022/08/14 02:54:00;;;;;;;0.50;0.50;;;24.90;45.60;;;;;;5064951;28;20025;-67
2022/08/14 02:56:26;;;;;;;0.50;0.50;;;24.90;45.60;;;;;;5063391;28;20429;-67
2022/08/14 02:58:55;;;;;;;0.50;0.50;;;24.90;45.60;;;;;;5065271;28;20093;-67
2022/08/14 03:01:22;;;;;;;0.80;0.73;;;24.90;45.60;;;;;;5063505;28;20036;-68
2022/08/14 03:03:48;;;;;;;0.60;0.60;;;24.90;45.60;;;;;;5064095;28;20062;-66
2022/08/14 03:06:16;;;;;;;0.50;0.50;;;24.90;45.60;;;;;;5062902;28;20367;-68
2022/08/14 03:08:42;;;;;;;0.52;0.52;;;24.90;45.60;;;;;;5064010;28;20154;-66
2022/08/14 03:11:10;;;;;;;0.60;0.60;;;24.90;45.60;;;;;;5063427;28;20028;-67
2022/08/14 03:13:41;;;;;;;0.60;0.60;;;24.90;45.60;;;;;;5061241;28;20129;-65
2022/08/14 03:16:13;;;;;;;0.80;0.60;;;24.90;46.10;;;;;;5061430;28;20170;-67
2022/08/14 03:18:43;;;;;;;0.70;0.70;;;24.80;45.50;;;;;;5062424;28;20028;-68
2022/08/14 03:21:15;;;;;;;0.60;0.60;;;24.80;45.60;;;;;;5062534;28;20035;-67
2022/08/14 03:23:43;;;;;;;0.80;0.55;;;24.80;45.50;;;;;;5063517;28;20055;-67
2022/08/14 03:26:18;;;;;;;0.60;0.60;;;24.80;45.60;;;;;;5061605;28;20029;-67
2022/08/14 03:28:47;;;;;;;0.50;0.50;;;24.80;45.50;;;;;;5062291;28;20078;-66
2022/08/14 03:31:13;;;;;;;0.57;0.57;;;24.80;45.50;;;;;;5060496;28;20471;-67
2022/08/14 03:33:40;;;;;;;0.63;0.60;;;24.80;45.60;;;;;;5062144;28;20024;-67
2022/08/14 03:36:12;;;;;;;0.50;0.50;;;24.80;46.10;;;;;;5061699;28;20033;-65
2022/08/14 03:38:43;;;;;;;0.50;0.50;;;24.80;45.60;;;;;;5061935;28;20020;-67
2022/08/14 03:41:15;;;;;;;0.70;0.70;;;24.80;45.60;;;;;;5062069;28;20391;-67
2022/08/14 03:43:41;;;;;;;0.75;0.70;;;24.80;45.60;;;;;;5061419;28;20027;-66
2022/08/14 03:46:09;;;;;;;0.68;0.68;;;24.80;45.60;;;;;;5062824;28;20025;-66
2022/08/14 03:48:34;;;;;;;0.60;0.60;;;24.80;45.60;;;;;;5060033;28;20735;-67
2022/08/14 03:51:01;;;;;;;0.60;0.60;;;24.80;45.60;;;;;;5062450;28;20029;-67
2022/08/14 03:53:26;;;;;;;0.60;0.60;;;24.80;45.60;;;;;;5062623;28;20030;-67
2022/08/14 03:55:57;;;;;;;0.57;0.57;;;24.80;45.60;;;;;;5061457;28;20498;-67
2022/08/14 03:58:23;;;;;;;0.50;0.50;;;24.80;45.60;;;;;;5061166;28;20433;-67
2022/08/14 04:00:49;;;;;;;2.60;1.15;;;24.80;45.60;;;;;;5060347;28;20029;-67
2022/08/14 04:03:15;;;;;;;0.70;0.70;;;24.80;45.60;;;;;;5061897;28;20037;-67
2022/08/14 04:05:41;;;;;;;0.63;0.63;;;24.80;45.60;;;;;;5063201;28;20073;-67
2022/08/14 04:08:10;;;;;;;0.60;0.60;;;24.80;45.60;;;;;;5060956;28;20429;-67
2022/08/14 04:10:37;;;;;;;0.60;0.60;;;24.80;45.60;;;;;;5062688;28;20040;-65
2022/08/14 04:13:05;;;;;;;0.60;0.60;;;24.80;45.60;;;;;;5024637;28;1075447;-67
2022/08/14 04:15:33;;;;;;;0.60;0.60;;;24.70;45.60;;;;;;5061941;28;20035;-67
2022/08/14 04:18:07;;;;;;;0.68;0.68;;;24.70;45.60;;;;;;5063867;28;20472;-65
2022/08/14 04:20:33;;;;;;;0.50;0.50;;;24.70;45.60;;;;;;5061201;28;20404;-66
2022/08/14 04:22:59;;;;;;;0.73;0.60;;;24.70;45.60;;;;;;5063763;28;20035;-66
2022/08/14 04:25:25;;;;;;;0.63;0.60;;;24.70;45.60;;;;;;5063646;28;20103;-66
2022/08/14 04:27:50;;;;;;;0.57;0.57;;;24.70;45.60;;;;;;5060347;28;20021;-66
2022/08/14 04:30:16;;;;;;;0.50;0.50;;;24.70;45.60;;;;;;5062550;28;20029;-66
2022/08/14 04:32:42;;;;;;;0.70;0.70;;;24.70;45.60;;;;;;5062160;28;20048;-67
2022/08/14 04:35:09;;;;;;;0.55;0.55;;;24.70;45.60;;;;;;5061794;28;20507;-65
2022/08/14 04:45:48;;;;;;;0.70;0.70;;;24.70;45.60;;;;;;5061118;28;20105;-66
2022/08/14 04:48:15;;;;;;;0.50;0.50;;;24.70;45.60;;;;;;5063329;28;20119;-64
2022/08/14 04:50:50;;;;;;;0.60;0.60;;;24.70;45.60;;;;;;5057982;28;20029;-66
2022/08/14 04:53:19;;;;;;;0.90;0.80;;;24.70;45.60;;;;;;5061793;28;20419;-67
2022/08/14 04:55:47;;;;;;;0.60;0.60;;;24.70;45.60;;;;;;5061497;28;20033;-67
2022/08/14 04:58:21;;;;;;;0.70;0.70;;;24.70;45.60;;;;;;5059161;28;20502;-67
2022/08/14 05:00:49;;;;;;;0.70;0.70;;;24.70;45.60;;;;;;5061061;28;20032;-66
2022/08/14 05:03:19;;;;;;;0.70;0.70;;;24.70;45.60;;;;;;5061538;28;20040;-67
2022/08/14 05:05:53;;;;;;;0.60;0.60;;;24.70;45.60;;;;;;5059991;28;20380;-67
2022/08/14 05:08:19;;;;;;;0.60;0.60;;;24.70;45.50;;;;;;5060842;28;20031;-67
2022/08/14 05:10:52;;;;;;;0.60;0.60;;;24.70;45.60;;;;;;5061297;28;20020;-67
2022/08/14 05:13:22;;;;;;;0.60;0.60;;;24.70;45.60;;;;;;5062287;28;20488;-66
2022/08/14 05:15:51;;;;;;;0.60;0.60;;;24.70;45.60;;;;;;5060935;28;20035;-67
2022/08/14 05:18:19;;;;;;;0.65;0.60;;;24.70;45.60;;;;;;5060695;28;20104;-68
2022/08/14 05:20:47;;;;;;;0.70;0.60;;;24.70;45.60;;;;;;5060931;28;20071;-67
2022/08/14 05:23:14;;;;;;;0.70;0.70;;;24.70;45.60;;;;;;5059560;28;20033;-66
2022/08/14 05:25:41;;;;;;;0.70;0.65;;;24.70;45.50;;;;;;5057263;28;20049;-67
2022/08/14 05:28:17;;;;;;;0.65;0.65;;;24.70;45.50;;;;;;5062571;28;20077;-67
2022/08/14 05:30:56;;;;;;;0.60;0.60;;;24.70;45.50;;;;;;5061471;28;20039;-67
2022/08/14 05:33:27;;;;;;;;;;;24.70;45.50;;;;;;5062314;28;20087;-65
2022/08/14 05:35:59;;;;;;;0.68;0.68;;;24.70;45.50;;;;;;5059993;28;19951;-66
2022/08/14 05:38:33;;;;;;;0.60;0.60;;;24.70;45.50;;;;;;5059366;28;20480;-67
2022/08/14 05:41:07;;;;;;;0.60;0.60;;;24.70;45.50;;;;;;5060116;28;20440;-66
2022/08/14 05:43:33;;;;;;;0.70;0.70;;;24.70;45.50;;;;;;5061043;28;20032;-67
2022/08/14 05:46:00;;;;;;;0.80;0.80;;;24.70;45.50;;;;;;5061279;28;20390;-65
2022/08/14 05:48:27;;;;;;;0.70;0.70;;;24.70;45.50;;;;;;5060621;28;20047;-67
2022/08/14 05:50:53;;;;;;;0.60;0.60;;;24.70;45.50;;;;;;5060973;28;20371;-67
2022/08/14 05:53:20;;;;;;;0.68;0.68;;;24.70;45.50;;;;;;5060586;28;20025;-67
2022/08/14 05:55:46;;;;;;;0.50;0.50;;;24.70;45.50;;;;;;5060288;28;20027;-67
2022/08/14 05:58:12;;;;;;;0.50;0.50;;;24.70;45.50;;;;;;5060196;28;20025;-66
2022/08/14 06:00:40;;;;;;;0.60;0.60;;;24.70;45.50;;;;;;5060684;28;20120;-63
2022/08/14 06:03:21;;;;;;;0.60;0.60;;;24.70;45.50;;;;;;5059437;28;20384;-66
2022/08/14 06:05:50;;;;;;;0.75;0.70;;;24.70;45.50;;;;;;5060365;28;20075;-68
2022/08/14 06:08:21;;;;;;;0.60;0.60;;;24.70;45.50;;;;;;5061597;28;20039;-66
2022/08/14 06:10:48;;;;;;;0.70;0.70;;;24.70;45.50;;;;;;5061299;28;20028;-66
2022/08/14 06:13:15;;;;;;;0.63;0.63;;;24.70;45.50;;;;;;5059504;28;20591;-66
2022/08/14 06:15:42;;;;;;;0.80;0.80;;;24.70;45.50;;;;;;5061228;28;20472;-65
2022/08/14 06:18:07;;;;;;;0.70;0.70;;;24.70;45.50;;;;;;5060345;28;20387;-64
2022/08/14 06:20:34;;;;;;;0.65;0.60;;;24.70;45.50;;;;;;5060196;28;20035;-65
2022/08/14 06:23:00;;;;;;;0.68;0.68;;;24.70;45.50;;;;;;5061010;28;20131;-66
2022/08/14 06:25:26;;;;;;;0.63;0.63;;;24.70;45.50;;;;;;5060930;28;20108;-66
2022/08/14 06:27:52;;;;;;;0.70;0.70;;;24.60;45.50;;;;;;5059539;28;20021;-66
2022/08/14 06:30:22;;;;;;;0.52;0.52;;;24.70;45.50;;;;;;5060535;28;20025;-66
2022/08/14 06:32:48;;;;;;;0.73;0.70;;;24.60;45.50;;;;;;5060211;28;20029;-67
2022/08/14 06:35:16;;;;;;;0.70;0.70;;;24.70;45.50;;;;;;5060473;28;20037;-65
2022/08/14 06:37:51;;;;;;;0.63;0.63;;;24.70;45.50;;;;;;5060353;28;20036;-66
2022/08/14 06:40:32;;;;;;;0.60;0.60;;;24.60;45.50;;;;;;5059014;28;20044;-67
2022/08/14 06:43:00;;;;;;;0.68;0.68;;;24.60;45.50;;;;;;5059679;28;20056;-66
2022/08/14 06:45:25;;;;;;;0.95;0.80;;;24.60;45.50;;;;;;5060470;28;20104;-66
2022/08/14 06:47:52;;;;;;;0.60;0.60;;;24.60;45.50;;;;;;5060728;28;20096;-66
2022/08/14 06:50:20;;;;;;;0.68;0.60;;;24.60;45.50;;;;;;5059153;28;20522;-67
2022/08/14 06:52:46;;;;;;;0.70;0.70;;;24.60;45.50;;;;;;5060312;28;20717;-66
2022/08/14 06:55:13;;;;;;;0.73;0.70;;;24.60;45.50;;;;;;5060357;28;20024;-66
2022/08/14 06:57:44;;;;;;;0.60;0.60;;;24.60;45.50;;;;;;5059808;28;20453;-66
2022/08/14 07:00:21;;;;;;;0.70;0.65;;;24.60;45.50;;;;;;5057748;28;20507;-67
2022/08/14 07:08:13;;;;;;;0.70;0.65;;;24.60;45.50;;;;;;5063127;28;20021;-66
2022/08/14 07:10:39;;;;;;;0.63;0.63;;;24.60;45.50;;;;;;5063345;28;20025;-65
2022/08/14 07:13:05;;;;;;;0.60;0.60;;;24.60;45.50;;;;;;5063495;28;20199;-66
2022/08/14 07:15:33;;;;;;;0.60;0.60;;;24.60;45.50;;;;;;5063847;28;20033;-66
2022/08/14 07:18:00;;;;;;;0.70;0.70;;;24.60;45.60;;;;;;5063629;28;20532;-66
2022/08/14 07:20:26;;;;;;;0.60;0.60;;;24.60;45.50;;;;;;5063693;28;20043;-66
2022/08/14 07:22:57;;;;;;;0.63;0.63;;;24.60;45.60;;;;;;5062797;28;20024;-66
2022/08/14 07:25:25;;;;;;;0.70;0.70;;;24.60;45.50;;;;;;5061962;28;20028;-66
2022/08/14 07:27:51;;;;;;;0.70;0.70;;;24.50;45.50;;;;;;5063483;28;20531;-66
2022/08/14 07:30:17;;;;;;;0.70;0.70;;;24.60;45.60;;;;;;5062922;28;20111;-66
2022/08/14 07:32:43;;;;;;;0.60;0.60;;;24.60;45.50;;;;;;5062457;28;20140;-66
2022/08/14 07:35:08;;;;;;;0.70;0.70;;;24.60;45.60;;;;;;5063577;28;20094;-65
2022/08/14 07:37:34;;;;;;;0.70;0.70;;;24.60;45.60;;;;;;5064114;28;20020;-66
2022/08/14 07:40:01;;;;;;;0.60;0.60;;;24.60;45.60;;;;;;5062275;28;20376;-66
2022/08/14 07:42:27;;;;;;;0.70;0.70;;;24.50;45.50;;;;;;5062368;28;20021;-65
2022/08/14 07:44:53;;;;;;;0.60;0.60;;;24.60;45.60;;;;;;5064070;28;20508;-66
2022/08/14 07:47:19;;;;;;;0.70;0.70;;;24.50;45.50;;;;;;5062696;28;20108;-66
2022/08/14 07:50:06;;;;;;;0.63;0.63;;;24.50;45.50;;;;;;5063437;28;20025;-66
2022/08/14 07:52:32;;;;;;;0.73;0.73;;;24.50;45.50;;;;;;5061942;28;20044;-66
2022/08/14 07:54:59;;;;;;;0.70;0.70;;;24.50;45.60;;;;;;5063508;28;20067;-65
2022/08/14 07:57:26;;;;;;;0.70;0.70;;;24.50;45.60;;;;;;5062737;28;20111;-65
2022/08/14 07:59:52;;;;;;;0.73;0.60;;;24.50;45.60;;;;;;5062459;28;20056;-66
2022/08/14 08:02:20;;;;;;;0.60;0.60;;;24.50;45.60;;;;;;5062534;28;20515;-66
2022/08/14 08:04:49;;;;;;;0.70;0.70;;;24.50;45.60;;;;;;5063970;28;20033;-66
2022/08/14 08:07:15;;;;;;;0.60;0.60;;;24.50;45.60;;;;;;5061415;28;20283;-66
2022/08/14 08:09:47;;;;;;;0.57;0.57;;;24.50;45.60;;;;;;5062367;28;20557;-66
2022/08/14 08:12:16;;;;;;;0.70;0.70;;;24.50;45.60;;;;;;5062214;28;20114;-66
2022/08/14 08:14:44;;;;;;;1.05;0.80;;;24.50;45.60;;;;;;5063838;28;20020;-66
2022/08/14 08:17:11;;;;;;;0.70;0.70;;;24.50;45.60;;;;;;5062433;28;20434;-65
2022/08/14 08:19:38;;;;;;;0.70;0.70;;;24.50;45.60;;;;;;5060865;28;20476;-66
2022/08/14 08:22:04;;;;;;;0.70;0.70;;;24.50;45.70;;;;;;5063830;28;20039;-66
2022/08/14 08:24:29;;;;;;;1.13;0.73;;;24.50;46.20;;;;;;5061107;28;20495;-66
2022/08/14 08:26:56;;;;;;;0.93;0.80;;;24.50;45.70;;;;;;5061206;28;20021;-66
2022/08/14 08:29:26;;;;;;;0.70;0.70;;;24.50;45.70;;;;;;5063061;28;20074;-66
2022/08/14 08:31:51;;;;;;;0.70;0.70;;;24.50;45.70;;;;;;5062658;28;20037;-66
2022/08/14 08:34:18;;;;;;;0.70;0.70;;;24.50;45.70;;;;;;5061267;28;20441;-66
2022/08/14 08:36:44;;;;;;;0.73;0.73;;;24.50;45.70;;;;;;5062211;28;20060;-66
2022/08/14 08:39:11;;;;;;;0.77;0.70;;;24.50;45.80;;;;;;5062088;28;20059;-65
2022/08/14 08:41:46;;;;;;;1.00;0.88;;;24.50;45.70;;;;;;5061752;28;20032;-66
2022/08/14 08:44:13;;;;;;;0.77;0.70;;;24.50;45.80;;;;;;5062140;28;20391;-66
2022/08/14 08:46:39;;;;;;;0.90;0.85;;;24.50;45.80;;;;;;5061865;28;20498;-66
2022/08/14 08:49:05;;;;;;;0.98;0.70;;;24.50;45.80;;;;;;5061699;28;20036;-66
2022/08/14 08:51:38;;;;;;;0.70;0.70;;;24.50;45.80;;;;;;5062556;28;20075;-66
2022/08/14 08:54:07;;;;;;;0.70;0.70;;;24.50;45.80;;;;;;5062571;28;20025;-66
2022/08/14 08:56:44;;;;;;;0.68;0.68;;;24.50;45.80;;;;;;5058665;28;20025;-65
2022/08/14 08:59:22;;;;;;;0.70;0.70;;;24.50;45.80;;;;;;5062010;28;20107;-65
2022/08/14 09:01:52;;;;;;;0.70;0.70;;;24.50;45.80;;;;;;5062015;28;20041;-65
2022/08/14 09:04:19;;;;;;;0.70;0.70;;;24.50;45.80;;;;;;5060229;28;20392;-66
2022/08/14 09:06:46;;;;;;;0.60;0.60;;;24.50;45.80;;;;;;5062645;28;20468;-66
2022/08/14 09:09:23;;;;;;;0.70;0.70;;;24.50;45.80;;;;;;5059414;28;20328;-65
2022/08/14 09:11:50;;;;;;;0.70;0.70;;;24.50;45.80;;;;;;5060690;28;20519;-66
2022/08/14 09:14:16;;;;;;;0.75;0.75;;;24.50;45.80;;;;;;5060071;28;20025;-66
2022/08/14 09:16:42;;;;;;;0.80;0.80;;;24.50;45.80;;;;;;5062098;28;20048;-66
2022/08/14 09:19:09;;;;;;;0.70;0.70;;;24.50;45.80;;;;;;5061860;28;20127;-66
2022/08/14 09:21:38;;;;;;;0.60;0.60;;;24.50;45.90;;;;;;5060691;28;20091;-66
2022/08/14 09:24:05;;;;;;;0.80;0.80;;;24.50;45.80;;;;;;5061157;28;20418;-66
2022/08/14 09:26:30;;;;;;;0.70;0.70;;;24.50;45.80;;;;;;5059465;28;20036;-66
2022/08/14 09:28:56;;;;;;;0.80;0.70;;;24.50;45.80;;;;;;5061553;28;20105;-65
2022/08/14 09:31:23;;;;;;;0.80;0.80;;;24.50;45.80;;;;;;5060931;28;20060;-66
2022/08/14 09:34:29;;;;;;;1.20;0.80;;;24.50;45.90;;;;;;5061438;28;20028;-66
2022/08/14 09:37:12;;;;;;;0.70;0.70;;;24.60;45.90;;;;;;5059919;28;20037;-65
2022/08/14 09:39:53;;;;;;;1.25;0.90;;;24.50;45.80;;;;;;5060156;28;20056;-66
2022/08/14 09:42:25;;;;;;;0.70;0.60;;;24.50;45.90;;;;;;5059869;28;20037;-66
2022/08/14 09:45:04;;;;;;;0.70;0.70;;;24.50;45.80;;;;;;5062411;28;20383;-66
2022/08/14 09:47:52;;;;;;;0.70;0.70;;;24.50;45.80;;;;;;5059058;28;20035;-66
2022/08/14 09:50:24;;;;;;;0.80;0.80;;;24.50;45.80;;;;;;5061416;28;20035;-66
2022/08/14 09:53:01;;;;;;;0.93;0.82;;;24.50;45.80;;;;;;5061321;28;20041;-66
2022/08/14 09:55:31;;;;;;;0.70;0.70;;;24.50;45.80;;;;;;5059452;28;20511;-66
2022/08/14 09:58:19;;;;;;;0.82;0.73;;;24.50;45.80;;;;;;5060322;28;20025;-65
2022/08/14 10:00:50;;;;;;;1.15;0.90;;;24.50;45.80;;;;;;5059197;28;20147;-64
2022/08/14 10:03:53;;;;;;;1.00;0.90;;;24.50;45.80;;;;;;5058807;28;20511;-66
2022/08/14 10:06:23;;;;;;;0.93;0.80;;;24.50;46.00;;;;;;5028882;28;20037;-66
2022/08/14 10:08:53;;;;;;;0.90;0.80;;;24.50;45.80;;;;;;5060402;28;20365;-66
2022/08/14 10:11:28;;;;;;;1.00;0.80;;;24.50;45.80;;;;;;5059564;28;20250;-65
2022/08/14 10:13:58;;;;;;;0.90;0.82;;;24.50;45.80;;;;;;5060847;28;20492;-66
2022/08/14 10:16:29;;;;;;;0.80;0.80;;;24.60;45.80;;;;;;5060359;28;20032;-66
2022/08/14 10:19:30;;;;;;;0.70;0.70;;;24.50;45.80;;;;;;5061152;28;20116;-66
2022/08/14 10:22:11;;;;;;;0.80;0.80;;;24.50;45.80;;;;;;4998643;28;20038;-65
2022/08/14 10:24:45;;;;;;;0.90;0.80;;;24.60;45.80;;;;;;5053789;28;20075;-65
2022/08/14 10:27:27;;;;;;;0.88;0.80;;;24.60;45.80;;;;;;5058337;28;20045;-65
2022/08/14 10:30:03;;;;;;;0.90;0.80;;;24.60;45.80;;;;;;5059506;28;20024;-65
2022/08/14 10:32:29;;;;;;;0.90;0.80;;;24.60;45.80;;;;;;5060447;28;20110;-65
2022/08/14 10:35:07;;;;;;;1.00;0.90;;;24.60;45.80;;;;;;5060794;28;20044;-66
2022/08/14 10:37:48;;;;;;;0.93;0.90;;;24.60;45.80;;;;;;5061366;28;20535;-66
2022/08/14 10:40:24;;;;;;;0.80;0.80;;;24.60;45.80;;;;;;5061003;28;20483;-66
2022/08/14 10:42:50;;;;;;;0.70;0.70;;;24.60;45.80;;;;;;5064005;28;20463;-66
2022/08/14 10:45:19;;;;;;;1.00;0.80;;;24.60;45.80;;;;;;5064505;28;20048;-66
2022/08/14 10:47:46;;;;;;;;;;;24.60;45.80;;;;;;5064265;28;20471;-66
2022/08/14 10:50:13;;;;;;;0.77;0.75;;;24.60;45.80;;;;;;5063143;28;19908;-66
2022/08/14 10:52:41;;;;;;;0.90;0.77;;;24.60;45.80;;;;;;5065118;28;20071;-66
2022/08/14 10:55:14;;;;;;;0.90;0.80;;;24.60;45.80;;;;;;5064499;28;20020;-66
2022/08/14 10:57:51;;;;;;;0.93;0.88;;;24.60;45.80;;;;;;5063947;28;20021;-67
2022/08/14 11:00:20;;;;;;;0.70;0.70;;;24.60;45.80;;;;;;5060641;28;20025;-67
2022/08/14 11:02:57;;;;;;;0.70;0.70;;;24.60;45.80;;;;;;5064157;28;20033;-66
2022/08/14 11:05:25;;;;;;;0.95;0.90;;;24.60;45.80;;;;;;5064451;28;20024;-67
2022/08/14 11:07:54;;;;;;;0.98;0.90;;;24.60;45.80;;;;;;5062992;28;20032;-67
2022/08/14 11:10:23;;;;;;;0.82;0.82;;;24.60;45.80;;;;;;5063222;28;20029;-67
2022/08/14 11:12:52;;;;;;;0.82;0.70;;;24.60;45.80;;;;;;5062183;28;20041;-66
2022/08/14 11:15:21;;;;;;;0.90;0.80;;;24.60;45.80;;;;;;5063901;28;20510;-66
2022/08/14 11:17:48;;;;;;;0.90;0.85;;;24.60;45.80;;;;;;5063672;28;20104;-67
2022/08/14 11:20:15;;;;;;;0.80;0.80;;;24.60;45.80;;;;;;5062007;28;20043;-67
2022/08/14 11:22:41;;;;;;;0.85;0.80;;;24.70;45.80;;;;;;5062675;28;20036;-66
2022/08/14 11:25:13;;;;;;;0.95;0.80;;;24.70;45.80;;;;;;5064119;28;20435;-68
2022/08/14 11:27:41;;;;;;;0.85;0.80;;;24.70;45.80;;;;;;5061696;28;20056;-67
2022/08/14 11:30:10;;;;;;;1.00;0.90;;;24.60;45.80;;;;;;5061099;28;20100;-66
2022/08/14 11:32:39;;;;;;;0.80;0.80;;;24.70;45.80;;;;;;5063091;28;20059;-66
2022/08/14 11:35:05;;;;;;;0.80;0.80;;;24.70;45.80;;;;;;5061378;28;20029;-66
2022/08/14 11:37:32;;;;;;;0.80;0.80;;;24.60;45.80;;;;;;5062685;28;20021;-66
2022/08/14 11:40:01;;;;;;;0.80;0.80;;;24.70;45.80;;;;;;5064527;28;20033;-67
2022/08/14 11:42:28;;;;;;;0.80;0.80;;;24.70;45.80;;;;;;5063291;28;20063;-64
2022/08/14 11:45:02;;;;;;;0.95;0.90;;;24.70;45.80;;;;;;5062459;28;20028;-67
2022/08/14 11:47:31;;;;;;;1.17;0.90;;;24.70;46.30;;;;;;5063386;28;20031;-65
2022/08/14 11:49:58;;;;;;;0.80;0.80;;;24.70;45.80;;;;;;5062232;28;20033;-66
2022/08/14 11:52:38;;;;;;;0.77;0.77;;;24.70;45.80;;;;;;5064419;28;20036;-67
2022/08/14 11:55:08;;;;;;;0.90;0.90;;;24.70;45.80;;;;;;5059694;28;20033;-66
2022/08/14 11:57:35;;;;;;;;;;;24.70;45.80;;;;;;5064063;28;20043;-66
2022/08/14 12:00:17;;;;;;;1.00;0.90;;;24.70;45.80;;;;;;5060854;28;20405;-67
2022/08/14 12:02:54;;;;;;;0.70;0.70;;;24.70;45.80;;;;;;5062524;28;20492;-67
2022/08/14 12:05:35;;;;;;;0.77;0.77;;;24.70;45.90;;;;;;5059852;28;20032;-66
2022/08/14 12:08:05;;;;;;;1.00;0.90;;;24.70;45.80;;;;;;5061206;28;20024;-66
2022/08/14 12:10:32;;;;;;;0.85;0.85;;;24.70;45.80;;;;;;5062152;28;20480;-67
2022/08/14 12:13:08;;;;;;;0.80;0.80;;;24.70;46.20;;;;;;5060863;28;20479;-67
2022/08/14 12:15:34;;;;;;;1.00;0.90;;;24.70;45.80;;;;;;5063087;28;20526;-67
2022/08/14 12:18:01;;;;;;;0.98;0.80;;;24.70;45.80;;;;;;5061510;28;20081;-66
2022/08/14 12:20:32;;;;;;;0.77;0.77;;;24.70;45.90;;;;;;5061785;28;20032;-67
2022/08/14 12:22:59;;;;;;;0.70;0.70;;;24.70;45.90;;;;;;5062767;28;20111;-66
2022/08/14 12:25:26;;;;;;;0.70;0.70;;;24.70;45.90;;;;;;5061082;28;20079;-68
2022/08/14 12:27:54;;;;;;;0.70;0.70;;;24.70;45.80;;;;;;5063994;28;20056;-67
2022/08/14 12:30:28;;;;;;;0.90;0.82;;;24.70;45.80;;;;;;5059860;28;20476;-65
2022/08/14 12:32:55;;;;;;;0.70;0.70;;;24.70;45.90;;;;;;5060778;28;20559;-67
2022/08/14 12:35:22;;;;;;;0.95;0.80;;;24.70;45.90;;;;;;5062327;28;20079;-66
2022/08/14 12:37:49;;;;;;;0.80;0.80;;;24.70;45.90;;;;;;5061592;28;20040;-67
2022/08/14 12:40:21;;;;;;;0.80;0.80;;;24.80;45.90;;;;;;5060754;28;20036;-67
2022/08/14 12:42:48;;;;;;;0.80;0.80;;;24.80;46.00;;;;;;5062031;28;20087;-67
2022/08/14 12:45:14;;;;;;;1.00;0.90;;;24.80;46.00;;;;;;5062955;28;20424;-68
2022/08/14 12:47:41;;;;;;;1.02;0.90;;;24.80;45.90;;;;;;5060988;28;20068;-67
2022/08/14 12:50:07;;;;;;;0.80;0.80;;;24.70;45.90;;;;;;5061661;28;20025;-66
2022/08/14 12:52:42;;;;;;;0.90;0.82;;;24.80;45.90;;;;;;5063142;28;20488;-66
2022/08/14 12:55:13;;;;;;;0.70;0.70;;;24.80;45.90;;;;;;5061549;28;20373;-66
2022/08/14 12:57:43;;;;;;;1.60;0.80;;;24.80;46.00;;;;;;5061741;28;20472;-66
2022/08/14 13:00:14;;;;;;;0.90;0.80;;;24.80;46.00;;;;;;5060871;28;20029;-66
2022/08/14 13:02:40;;;;;;;0.80;0.80;;;24.80;46.10;;;;;;5059673;28;20033;-67
2022/08/14 13:05:09;;;;;;;0.73;0.73;;;24.80;46.10;;;;;;5060963;28;20074;-66
2022/08/14 13:07:38;;;;;;;0.80;0.80;;;24.80;46.00;;;;;;5062227;28;20020;-66
2022/08/14 13:10:14;;;;;;;0.75;0.75;;;24.80;46.00;;;;;;5061049;28;20108;-67
2022/08/14 13:12:41;;;;;;;0.98;0.80;;;24.80;46.10;;;;;;5061213;28;20623;-67
2022/08/14 13:15:12;;;;;;;0.90;0.80;;;24.80;46.00;;;;;;5061182;28;20079;-66